Terminal Aerodrome Forecast
Issued by NWS

Home | Current Version | Previous Version | Text Only | Print | Product List | Glossary On
Versions: 1 2 3 4 5 6 7 8 9 10 11 12 13 14 15 16
000
FTUS43 KDLH 201143
TAFHYR
TAF
KHYR 201143Z 2012/2112 18007KT P6SM BKN150
     FM210200 20007KT P6SM BKN150 WS020/29040KT
     FM210500 26008KT P6SM BKN020 WS020/27045KT
     FM210800 25010G20KT P6SM BKN030=

USA.gov is the U.S. government's official web portal to all federal, state and local government web resources and services.